sensor_id;sensor_type;location;lat;lon;timestamp;pressure;altitude;pressure_sealevel;temperature;humidity
12349;BME280;5974;42.710;27.258;2023-03-25T00:01:52;100056.94;;;3.74;100.00
12349;BME280;5974;42.710;27.258;2023-03-25T00:04:19;100051.59;;;3.85;100.00
12349;BME280;5974;42.710;27.258;2023-03-25T00:06:46;100046.13;;;4.05;100.00
12349;BME280;5974;42.710;27.258;2023-03-25T00:09:13;100040.19;;;4.00;100.00
12349;BME280;5974;42.710;27.258;2023-03-25T00:11:39;100039.28;;;4.01;100.00
12349;BME280;5974;42.710;27.258;2023-03-25T00:14:06;100038.47;;;3.97;100.00
12349;BME280;5974;42.710;27.258;2023-03-25T00:16:34;100038.38;;;4.03;100.00
12349;BME280;5974;42.710;27.258;2023-03-25T00:19:02;100023.81;;;3.98;100.00
12349;BME280;5974;42.710;27.258;2023-03-25T00:21:29;100029.84;;;3.98;100.00
12349;BME280;5974;42.710;27.258;2023-03-25T00:23:57;100037.72;;;3.92;100.00
12349;BME280;5974;42.710;27.258;2023-03-25T00:26:24;100031.69;;;3.92;100.00
12349;BME280;5974;42.710;27.258;2023-03-25T00:28:54;100028.03;;;4.03;100.00
12349;BME280;5974;42.710;27.258;2023-03-25T00:31:21;100025.53;;;3.99;100.00
12349;BME280;5974;42.710;27.258;2023-03-25T00:33:49;100029.94;;;3.92;100.00
12349;BME280;5974;42.710;27.258;2023-03-25T00:36:16;100019.56;;;3.97;100.00
12349;BME280;5974;42.710;27.258;2023-03-25T00:38:47;100023.00;;;3.96;100.00
12349;BME280;5974;42.710;27.258;2023-03-25T00:41:16;100021.34;;;3.92;100.00
12349;BME280;5974;42.710;27.258;2023-03-25T00:43:47;100026.56;;;3.89;100.00
12349;BME280;5974;42.710;27.258;2023-03-25T00:46:14;100019.66;;;3.91;100.00
12349;BME280;5974;42.710;27.258;2023-03-25T00:48:41;100024.00;;;3.86;100.00
12349;BME280;5974;42.710;27.258;2023-03-25T00:51:10;100011.19;;;3.79;100.00
12349;BME280;5974;42.710;27.258;2023-03-25T00:53:38;100018.06;;;3.80;100.00
12349;BME280;5974;42.710;27.258;2023-03-25T00:56:06;100013.63;;;3.90;100.00
12349;BME280;5974;42.710;27.258;2023-03-25T00:58:33;100012.66;;;3.96;100.00
12349;BME280;5974;42.710;27.258;2023-03-25T01:01:00;100013.00;;;3.73;100.00
12349;BME280;5974;42.710;27.258;2023-03-25T01:03:27;100001.78;;;3.74;100.00
12349;BME280;5974;42.710;27.258;2023-03-25T01:05:54;100003.38;;;3.82;100.00
12349;BME280;5974;42.710;27.258;2023-03-25T01:08:23;99998.38;;;3.70;100.00
12349;BME280;5974;42.710;27.258;2023-03-25T01:10:54;99997.34;;;3.83;100.00
12349;BME280;5974;42.710;27.258;2023-03-25T01:13:22;100000.06;;;3.74;100.00
12349;BME280;5974;42.710;27.258;2023-03-25T01:15:49;99963.59;;;3.33;100.00
12349;BME280;5974;42.710;27.258;2023-03-25T01:18:16;99991.91;;;3.42;100.00
12349;BME280;5974;42.710;27.258;2023-03-25T01:20:44;99986.16;;;3.20;100.00
12349;BME280;5974;42.710;27.258;2023-03-25T01:23:11;99974.53;;;2.88;100.00
12349;BME280;5974;42.710;27.258;2023-03-25T01:25:39;99986.38;;;2.28;100.00
12349;BME280;5974;42.710;27.258;2023-03-25T01:28:06;99982.53;;;2.66;100.00
12349;BME280;5974;42.710;27.258;2023-03-25T01:30:32;99988.13;;;3.02;100.00
12349;BME280;5974;42.710;27.258;2023-03-25T01:32:59;99991.25;;;3.26;100.00
12349;BME280;5974;42.710;27.258;2023-03-25T01:35:26;99979.16;;;3.30;100.00
12349;BME280;5974;42.710;27.258;2023-03-25T01:37:53;99980.06;;;3.27;100.00
12349;BME280;5974;42.710;27.258;2023-03-25T01:40:22;99980.94;;;3.25;100.00
12349;BME280;5974;42.710;27.258;2023-03-25T01:42:51;99974.06;;;3.24;100.00
12349;BME280;5974;42.710;27.258;2023-03-25T01:45:23;99974.16;;;3.18;100.00
12349;BME280;5974;42.710;27.258;2023-03-25T01:47:55;99966.50;;;2.34;100.00
12349;BME280;5974;42.710;27.258;2023-03-25T01:50:23;99967.72;;;2.00;100.00
12349;BME280;5974;42.710;27.258;2023-03-25T01:52:55;99954.19;;;1.71;100.00
12349;BME280;5974;42.710;27.258;2023-03-25T01:55:22;99967.19;;;2.53;100.00
12349;BME280;5974;42.710;27.258;2023-03-25T01:57:53;99955.75;;;2.77;100.00
12349;BME280;5974;42.710;27.258;2023-03-25T02:00:23;99960.78;;;2.87;100.00
12349;BME280;5974;42.710;27.258;2023-03-25T02:02:52;99961.59;;;2.91;100.00
12349;BME280;5974;42.710;27.258;2023-03-25T02:05:28;99957.25;;;2.93;100.00
12349;BME280;5974;42.710;27.258;2023-03-25T02:07:58;99963.16;;;3.04;100.00
12349;BME280;5974;42.710;27.258;2023-03-25T02:10:25;99958.84;;;3.03;100.00
12349;BME280;5974;42.710;27.258;2023-03-25T02:12:53;99956.94;;;3.17;100.00
12349;BME280;5974;42.710;27.258;2023-03-25T02:15:20;99957.84;;;3.16;100.00
12349;BME280;5974;42.710;27.258;2023-03-25T02:21:19;99952.66;;;3.16;100.00
12349;BME280;5974;42.710;27.258;2023-03-25T02:24:12;99947.88;;;2.87;100.00
12349;BME280;5974;42.710;27.258;2023-03-25T02:27:07;99956.50;;;2.04;100.00
12349;BME280;5974;42.710;27.258;2023-03-25T02:29:54;99937.97;;;2.51;100.00
12349;BME280;5974;42.710;27.258;2023-03-25T02:32:37;99934.22;;;2.79;100.00
12349;BME280;5974;42.710;27.258;2023-03-25T02:35:22;99935.81;;;2.86;100.00
12349;BME280;5974;42.710;27.258;2023-03-25T02:38:13;99934.94;;;2.09;100.00
12349;BME280;5974;42.710;27.258;2023-03-25T02:40:45;99936.56;;;2.19;100.00
12349;BME280;5974;42.710;27.258;2023-03-25T02:43:19;99938.97;;;2.38;100.00
12349;BME280;5974;42.710;27.258;2023-03-25T02:45:50;99930.06;;;2.66;100.00
12349;BME280;5974;42.710;27.258;2023-03-25T02:48:22;99923.22;;;2.62;100.00
12349;BME280;5974;42.710;27.258;2023-03-25T02:50:55;99922.31;;;2.67;100.00
12349;BME280;5974;42.710;27.258;2023-03-25T02:53:28;99913.00;;;2.53;100.00
12349;BME280;5974;42.710;27.258;2023-03-25T02:56:00;99925.09;;;2.48;100.00
12349;BME280;5974;42.710;27.258;2023-03-25T02:58:29;99919.72;;;2.67;100.00
12349;BME280;5974;42.710;27.258;2023-03-25T03:00:57;99918.19;;;2.51;100.00
12349;BME280;5974;42.710;27.258;2023-03-25T03:03:24;99913.78;;;2.59;100.00
12349;BME280;5974;42.710;27.258;2023-03-25T03:05:52;99924.72;;;2.83;100.00
12349;BME280;5974;42.710;27.258;2023-03-25T03:08:49;99921.19;;;2.87;100.00
12349;BME280;5974;42.710;27.258;2023-03-25T03:11:23;99920.38;;;2.85;100.00
12349;BME280;5974;42.710;27.258;2023-03-25T03:13:59;99923.78;;;2.87;100.00
12349;BME280;5974;42.710;27.258;2023-03-25T03:16:42;99926.13;;;2.33;100.00
12349;BME280;5974;42.710;27.258;2023-03-25T03:19:22;99920.13;;;2.33;100.00
12349;BME280;5974;42.710;27.258;2023-03-25T03:21:56;99918.38;;;2.35;100.00
12349;BME280;5974;42.710;27.258;2023-03-25T03:24:28;99926.00;;;1.51;100.00
12349;BME280;5974;42.710;27.258;2023-03-25T03:26:58;99924.97;;;1.75;100.00
12349;BME280;5974;42.710;27.258;2023-03-25T03:29:33;99897.53;;;1.68;100.00
12349;BME280;5974;42.710;27.258;2023-03-25T03:32:06;99926.13;;;1.33;100.00
12349;BME280;5974;42.710;27.258;2023-03-25T03:34:37;99907.66;;;1.89;100.00
12349;BME280;5974;42.710;27.258;2023-03-25T03:37:11;99922.00;;;2.17;100.00
12349;BME280;5974;42.710;27.258;2023-03-25T03:39:41;99920.91;;;2.39;100.00
12349;BME280;5974;42.710;27.258;2023-03-25T03:42:13;99924.38;;;2.35;100.00
12349;BME280;5974;42.710;27.258;2023-03-25T03:44:46;99919.03;;;2.55;100.00
12349;BME280;5974;42.710;27.258;2023-03-25T03:47:18;99920.78;;;2.51;100.00
12349;BME280;5974;42.710;27.258;2023-03-25T03:49:50;99905.22;;;2.56;100.00
12349;BME280;5974;42.710;27.258;2023-03-25T03:52:22;99911.19;;;2.61;100.00
12349;BME280;5974;42.710;27.258;2023-03-25T03:54:55;99917.22;;;2.61;100.00
12349;BME280;5974;42.710;27.258;2023-03-25T03:57:26;99911.25;;;2.58;100.00
12349;BME280;5974;42.710;27.258;2023-03-25T03:59:59;99920.78;;;2.51;100.00
12349;BME280;5974;42.710;27.258;2023-03-25T04:02:37;99914.72;;;2.54;100.00
12349;BME280;5974;42.710;27.258;2023-03-25T04:05:06;99898.44;;;2.47;100.00
12349;BME280;5974;42.710;27.258;2023-03-25T04:07:39;99917.38;;;1.56;100.00
12349;BME280;5974;42.710;27.258;2023-03-25T04:10:11;99912.53;;;1.08;100.00
12349;BME280;5974;42.710;27.258;2023-03-25T04:12:42;99915.25;;;0.88;100.00
12349;BME280;5974;42.710;27.258;2023-03-25T04:15:13;99917.69;;;1.08;100.00
12349;BME280;5974;42.710;27.258;2023-03-25T04:17:40;99911.31;;;1.63;100.00
12349;BME280;5974;42.710;27.258;2023-03-25T04:20:09;99916.13;;;2.01;100.00
12349;BME280;5974;42.710;27.258;2023-03-25T04:22:39;99893.69;;;2.11;100.00
12349;BME280;5974;42.710;27.258;2023-03-25T04:25:11;99908.97;;;2.29;100.00
12349;BME280;5974;42.710;27.258;2023-03-25T04:27:39;99909.63;;;2.48;100.00
12349;BME280;5974;42.710;27.258;2023-03-25T04:30:07;99894.13;;;2.49;100.00
12349;BME280;5974;42.710;27.258;2023-03-25T04:32:34;99911.09;;;2.70;100.00
12349;BME280;5974;42.710;27.258;2023-03-25T04:35:01;99905.97;;;2.67;100.00
12349;BME280;5974;42.710;27.258;2023-03-25T04:37:29;99907.59;;;2.74;100.00
12349;BME280;5974;42.710;27.258;2023-03-25T04:39:58;99902.25;;;2.88;100.00
12349;BME280;5974;42.710;27.258;2023-03-25T04:42:26;99905.28;;;3.17;100.00
12349;BME280;5974;42.710;27.258;2023-03-25T04:44:57;99898.25;;;3.26;100.00
12349;BME280;5974;42.710;27.258;2023-03-25T04:47:24;99909.03;;;3.56;100.00
12349;BME280;5974;42.710;27.258;2023-03-25T04:49:51;99907.28;;;4.08;100.00
12349;BME280;5974;42.710;27.258;2023-03-25T04:52:18;99910.41;;;6.80;100.00
12349;BME280;5974;42.710;27.258;2023-03-25T04:54:45;99882.81;;;9.08;100.00
12349;BME280;5974;42.710;27.258;2023-03-25T04:57:12;99853.88;;;8.92;100.00
12349;BME280;5974;42.710;27.258;2023-03-25T04:59:41;99834.09;;;10.73;100.00
12349;BME280;5974;42.710;27.258;2023-03-25T05:02:10;99809.38;;;11.69;100.00
12349;BME280;5974;42.710;27.258;2023-03-25T05:04:37;99803.34;;;13.90;100.00
12349;BME280;5974;42.710;27.258;2023-03-25T05:07:06;99800.78;;;13.89;89.48
12349;BME280;5974;42.710;27.258;2023-03-25T05:09:34;99815.50;;;12.36;89.77
12349;BME280;5974;42.710;27.258;2023-03-25T05:12:01;99818.28;;;14.18;85.94
12349;BME280;5974;42.710;27.258;2023-03-25T05:14:28;99812.16;;;15.43;76.63
12349;BME280;5974;42.710;27.258;2023-03-25T05:16:56;99814.88;;;15.56;74.85
12349;BME280;5974;42.710;27.258;2023-03-25T05:19:24;99820.19;;;15.81;72.16
12349;BME280;5974;42.710;27.258;2023-03-25T05:21:53;99820.47;;;15.64;69.43
12349;BME280;5974;42.710;27.258;2023-03-25T05:24:20;99811.38;;;15.41;69.32
12349;BME280;5974;42.710;27.258;2023-03-25T05:26:47;99819.94;;;16.36;67.20
12349;BME280;5974;42.710;27.258;2023-03-25T05:29:14;99805.28;;;15.41;67.22
12349;BME280;5974;42.710;27.258;2023-03-25T05:31:43;99811.13;;;14.36;71.22
12349;BME280;5974;42.710;27.258;2023-03-25T05:34:11;99815.22;;;14.68;71.75
12349;BME280;5974;42.710;27.258;2023-03-25T05:36:41;99808.56;;;14.62;72.58
12349;BME280;5974;42.710;27.258;2023-03-25T05:39:08;99802.28;;;16.74;70.72
12349;BME280;5974;42.710;27.258;2023-03-25T05:41:35;99806.66;;;17.94;64.71
12349;BME280;5974;42.710;27.258;2023-03-25T05:44:04;99808.56;;;18.71;61.98
12349;BME280;5974;42.710;27.258;2023-03-25T05:46:31;99807.31;;;17.50;63.16
12349;BME280;5974;42.710;27.258;2023-03-25T05:48:58;99802.66;;;17.88;62.71
12349;BME280;5974;42.710;27.258;2023-03-25T05:51:28;99804.06;;;17.10;62.85
12349;BME280;5974;42.710;27.258;2023-03-25T05:53:58;99799.53;;;17.36;63.91
12349;BME280;5974;42.710;27.258;2023-03-25T05:56:25;99796.06;;;16.75;63.64
12349;BME280;5974;42.710;27.258;2023-03-25T05:58:52;99807.97;;;16.81;63.80
12349;BME280;5974;42.710;27.258;2023-03-25T06:01:21;99793.53;;;17.34;63.34
12349;BME280;5974;42.710;27.258;2023-03-25T06:03:48;99790.59;;;17.73;61.45
12349;BME280;5974;42.710;27.258;2023-03-25T06:06:15;99798.72;;;16.99;62.16
12349;BME280;5974;42.710;27.258;2023-03-25T06:08:47;99795.66;;;16.18;65.25
12349;BME280;5974;42.710;27.258;2023-03-25T06:11:15;99794.94;;;17.27;65.95
12349;BME280;5974;42.710;27.258;2023-03-25T06:13:44;99794.84;;;18.88;62.47
12349;BME280;5974;42.710;27.258;2023-03-25T06:16:16;99797.00;;;17.82;59.40
12349;BME280;5974;42.710;27.258;2023-03-25T06:18:44;99805.94;;;17.45;63.38
12349;BME280;5974;42.710;27.258;2023-03-25T06:21:16;99798.59;;;20.13;58.75
12349;BME280;5974;42.710;27.258;2023-03-25T06:23:42;99802.19;;;21.24;54.91
12349;BME280;5974;42.710;27.258;2023-03-25T06:26:11;99799.50;;;20.74;56.16
12349;BME280;5974;42.710;27.258;2023-03-25T06:28:38;99791.22;;;19.32;57.14
12349;BME280;5974;42.710;27.258;2023-03-25T06:31:11;99790.69;;;17.61;59.59
12349;BME280;5974;42.710;27.258;2023-03-25T06:33:38;99788.75;;;17.98;62.32
12349;BME280;5974;42.710;27.258;2023-03-25T06:36:06;99798.88;;;20.31;58.79
12349;BME280;5974;42.710;27.258;2023-03-25T06:38:33;99796.91;;;20.53;57.54
12349;BME280;5974;42.710;27.258;2023-03-25T06:41:00;99798.06;;;23.08;53.83
12349;BME280;5974;42.710;27.258;2023-03-25T06:43:29;99790.00;;;23.45;50.13
12349;BME280;5974;42.710;27.258;2023-03-25T06:45:55;99793.44;;;22.37;51.33
12349;BME280;5974;42.710;27.258;2023-03-25T06:48:22;99794.16;;;24.52;49.14
12349;BME280;5974;42.710;27.258;2023-03-25T06:50:49;99804.31;;;23.17;50.45
12349;BME280;5974;42.710;27.258;2023-03-25T06:53:17;99801.22;;;23.21;50.73
12349;BME280;5974;42.710;27.258;2023-03-25T06:55:44;99805.94;;;23.10;50.78
12349;BME280;5974;42.710;27.258;2023-03-25T06:58:11;99799.38;;;23.49;51.15
12349;BME280;5974;42.710;27.258;2023-03-25T07:00:39;99797.28;;;23.96;51.16
12349;BME280;5974;42.710;27.258;2023-03-25T07:03:06;99796.97;;;23.99;50.18
12349;BME280;5974;42.710;27.258;2023-03-25T07:05:33;99792.44;;;24.00;51.18
12349;BME280;5974;42.710;27.258;2023-03-25T07:08:00;99805.78;;;24.69;50.45
12349;BME280;5974;42.710;27.258;2023-03-25T07:10:27;99792.34;;;25.28;48.55
12349;BME280;5974;42.710;27.258;2023-03-25T07:12:53;99804.13;;;25.02;49.81
12349;BME280;5974;42.710;27.258;2023-03-25T07:15:20;99798.19;;;25.32;49.92
12349;BME280;5974;42.710;27.258;2023-03-25T07:17:48;99798.63;;;24.69;49.14
12349;BME280;5974;42.710;27.258;2023-03-25T07:20:15;99789.72;;;23.39;52.28
12349;BME280;5974;42.710;27.258;2023-03-25T07:22:42;99790.72;;;23.38;51.39
12349;BME280;5974;42.710;27.258;2023-03-25T07:25:09;99759.72;;;26.06;48.25
12349;BME280;5974;42.710;27.258;2023-03-25T07:27:36;99784.00;;;26.45;46.80
12349;BME280;5974;42.710;27.258;2023-03-25T07:30:03;99781.47;;;21.75;52.78
12349;BME280;5974;42.710;27.258;2023-03-25T07:32:30;99786.63;;;22.61;53.51
12349;BME280;5974;42.710;27.258;2023-03-25T07:34:59;99784.06;;;22.79;53.39
12349;BME280;5974;42.710;27.258;2023-03-25T07:37:25;99780.69;;;24.62;52.24
12349;BME280;5974;42.710;27.258;2023-03-25T07:39:52;99779.44;;;22.35;54.19
12349;BME280;5974;42.710;27.258;2023-03-25T07:42:19;99781.63;;;22.02;56.51
12349;BME280;5974;42.710;27.258;2023-03-25T07:44:46;99781.44;;;20.38;58.01
12349;BME280;5974;42.710;27.258;2023-03-25T07:47:13;99782.56;;;21.15;59.63
12349;BME280;5974;42.710;27.258;2023-03-25T07:49:40;99785.06;;;20.16;62.06
12349;BME280;5974;42.710;27.258;2023-03-25T07:52:09;99783.38;;;17.04;68.40
12349;BME280;5974;42.710;27.258;2023-03-25T07:54:36;99782.66;;;16.03;76.34
12349;BME280;5974;42.710;27.258;2023-03-25T07:57:03;99780.66;;;16.32;90.51
12349;BME280;5974;42.710;27.258;2023-03-25T07:59:30;99777.19;;;15.81;93.04
12349;BME280;5974;42.710;27.258;2023-03-25T08:01:57;99775.34;;;15.81;100.00
12349;BME280;5974;42.710;27.258;2023-03-25T08:04:24;99770.94;;;15.94;100.00
12349;BME280;5974;42.710;27.258;2023-03-25T08:06:51;99769.47;;;16.15;100.00
12349;BME280;5974;42.710;27.258;2023-03-25T08:09:19;99762.38;;;15.78;100.00
12349;BME280;5974;42.710;27.258;2023-03-25T08:11:46;99757.78;;;16.57;100.00
12349;BME280;5974;42.710;27.258;2023-03-25T08:14:13;99725.91;;;15.97;100.00
12349;BME280;5974;42.710;27.258;2023-03-25T08:16:41;99750.19;;;15.90;100.00
12349;BME280;5974;42.710;27.258;2023-03-25T08:19:08;99754.28;;;16.19;100.00
12349;BME280;5974;42.710;27.258;2023-03-25T08:21:35;99750.16;;;16.89;100.00
12349;BME280;5974;42.710;27.258;2023-03-25T08:24:02;99745.78;;;16.64;100.00
12349;BME280;5974;42.710;27.258;2023-03-25T08:26:31;99741.78;;;16.46;100.00
12349;BME280;5974;42.710;27.258;2023-03-25T08:28:58;99741.06;;;17.17;100.00
12349;BME280;5974;42.710;27.258;2023-03-25T08:31:28;99729.06;;;16.76;100.00
12349;BME280;5974;42.710;27.258;2023-03-25T08:33:55;99735.38;;;16.87;100.00
12349;BME280;5974;42.710;27.258;2023-03-25T08:36:22;99739.06;;;16.48;100.00
12349;BME280;5974;42.710;27.258;2023-03-25T08:38:51;99731.03;;;17.22;100.00
12349;BME280;5974;42.710;27.258;2023-03-25T08:41:18;99719.31;;;17.72;100.00
12349;BME280;5974;42.710;27.258;2023-03-25T08:43:46;99715.50;;;17.52;100.00
12349;BME280;5974;42.710;27.258;2023-03-25T08:46:13;99709.00;;;17.91;100.00
12349;BME280;5974;42.710;27.258;2023-03-25T08:48:40;99709.94;;;17.79;98.56
12349;BME280;5974;42.710;27.258;2023-03-25T08:51:08;99702.25;;;17.76;100.00
12349;BME280;5974;42.710;27.258;2023-03-25T08:53:35;99693.84;;;18.37;99.11
12349;BME280;5974;42.710;27.258;2023-03-25T08:56:01;99703.63;;;18.26;100.00
12349;BME280;5974;42.710;27.258;2023-03-25T08:58:28;99702.78;;;18.59;99.02
12349;BME280;5974;42.710;27.258;2023-03-25T09:00:56;99703.91;;;19.20;94.63
12349;BME280;5974;42.710;27.258;2023-03-25T09:03:24;99695.47;;;18.94;92.79
12349;BME280;5974;42.710;27.258;2023-03-25T09:05:51;99689.84;;;18.87;92.41
12349;BME280;5974;42.710;27.258;2023-03-25T09:08:18;99685.34;;;19.31;91.36
12349;BME280;5974;42.710;27.258;2023-03-25T09:10:45;99683.03;;;19.06;87.91
12349;BME280;5974;42.710;27.258;2023-03-25T09:13:12;99681.75;;;19.21;90.57
12349;BME280;5974;42.710;27.258;2023-03-25T09:15:40;99667.53;;;18.36;89.62
12349;BME280;5974;42.710;27.258;2023-03-25T09:18:08;99669.09;;;19.24;90.91
12349;BME280;5974;42.710;27.258;2023-03-25T09:20:35;99676.03;;;19.57;87.24
12349;BME280;5974;42.710;27.258;2023-03-25T09:23:02;99663.63;;;19.58;84.83
12349;BME280;5974;42.710;27.258;2023-03-25T09:25:29;99661.69;;;19.80;84.13
12349;BME280;5974;42.710;27.258;2023-03-25T09:27:56;99649.00;;;19.84;79.25
12349;BME280;5974;42.710;27.258;2023-03-25T09:30:23;99629.50;;;19.43;78.86
12349;BME280;5974;42.710;27.258;2023-03-25T09:32:50;99654.59;;;19.90;80.67
12349;BME280;5974;42.710;27.258;2023-03-25T09:35:18;99652.75;;;20.51;80.57
12349;BME280;5974;42.710;27.258;2023-03-25T09:37:45;99643.03;;;20.31;76.99
12349;BME280;5974;42.710;27.258;2023-03-25T09:40:13;99641.78;;;21.04;75.60
12349;BME280;5974;42.710;27.258;2023-03-25T09:45:34;99640.03;;;20.55;76.95
12349;BME280;5974;42.710;27.258;2023-03-25T09:48:04;99635.75;;;21.21;75.25
12349;BME280;5974;42.710;27.258;2023-03-25T09:50:37;99630.84;;;20.97;71.66
12349;BME280;5974;42.710;27.258;2023-03-25T09:53:13;99635.13;;;20.50;72.59
12349;BME280;5974;42.710;27.258;2023-03-25T09:55:45;99624.94;;;20.16;75.96
12349;BME280;5974;42.710;27.258;2023-03-25T09:58:35;99620.63;;;20.54;75.04
12349;BME280;5974;42.710;27.258;2023-03-25T10:01:13;99612.38;;;20.96;74.85
12349;BME280;5974;42.710;27.258;2023-03-25T10:03:52;99616.41;;;20.62;75.05
12349;BME280;5974;42.710;27.258;2023-03-25T10:06:23;99608.78;;;20.28;75.80
12349;BME280;5974;42.710;27.258;2023-03-25T10:11:56;99594.72;;;20.95;73.23
12349;BME280;5974;42.710;27.258;2023-03-25T10:14:32;99588.72;;;20.74;72.09
12349;BME280;5974;42.710;27.258;2023-03-25T10:17:11;99580.03;;;21.20;73.03
12349;BME280;5974;42.710;27.258;2023-03-25T10:19:49;99579.19;;;21.29;69.05
12349;BME280;5974;42.710;27.258;2023-03-25T10:22:25;99583.13;;;21.25;71.28
12349;BME280;5974;42.710;27.258;2023-03-25T10:24:55;99566.13;;;21.45;69.91
12349;BME280;5974;42.710;27.258;2023-03-25T10:27:31;99560.16;;;21.33;70.05
12349;BME280;5974;42.710;27.258;2023-03-25T10:30:03;99565.75;;;21.77;68.44
12349;BME280;5974;42.710;27.258;2023-03-25T10:32:38;99525.78;;;21.13;67.23
12349;BME280;5974;42.710;27.258;2023-03-25T10:35:10;99550.31;;;21.53;65.72
12349;BME280;5974;42.710;27.258;2023-03-25T10:37:40;99533.47;;;20.96;67.65
12349;BME280;5974;42.710;27.258;2023-03-25T10:40:20;99531.63;;;21.62;67.32
12349;BME280;5974;42.710;27.258;2023-03-25T10:43:13;99522.09;;;21.23;66.55
12349;BME280;5974;42.710;27.258;2023-03-25T10:45:43;99527.56;;;21.68;64.21
12349;BME280;5974;42.710;27.258;2023-03-25T10:48:12;99498.63;;;21.19;63.88
12349;BME280;5974;42.710;27.258;2023-03-25T10:50:42;99521.50;;;21.39;62.67
12349;BME280;5974;42.710;27.258;2023-03-25T10:53:18;99521.22;;;21.32;62.59
12349;BME280;5974;42.710;27.258;2023-03-25T10:55:47;99521.47;;;21.76;63.55
12349;BME280;5974;42.710;27.258;2023-03-25T10:58:17;99518.31;;;21.99;63.34
12349;BME280;5974;42.710;27.258;2023-03-25T11:00:46;99504.59;;;21.94;63.76
12349;BME280;5974;42.710;27.258;2023-03-25T11:03:16;99499.78;;;21.43;62.94
12349;BME280;5974;42.710;27.258;2023-03-25T11:05:45;99488.88;;;21.74;62.13
12349;BME280;5974;42.710;27.258;2023-03-25T11:08:15;99478.97;;;21.93;62.81
12349;BME280;5974;42.710;27.258;2023-03-25T11:10:46;99485.31;;;22.28;63.30
12349;BME280;5974;42.710;27.258;2023-03-25T11:13:16;99481.13;;;22.25;61.83
12349;BME280;5974;42.710;27.258;2023-03-25T11:15:46;99467.94;;;21.24;61.29
12349;BME280;5974;42.710;27.258;2023-03-25T11:18:19;99468.72;;;22.16;63.04
12349;BME280;5974;42.710;27.258;2023-03-25T11:20:48;99467.06;;;22.33;61.39
12349;BME280;5974;42.710;27.258;2023-03-25T11:23:21;99462.94;;;21.76;59.78
12349;BME280;5974;42.710;27.258;2023-03-25T11:25:52;99460.91;;;22.14;60.24
12349;BME280;5974;42.710;27.258;2023-03-25T11:28:23;99461.13;;;22.39;60.16
12349;BME280;5974;42.710;27.258;2023-03-25T11:31:13;99453.19;;;22.47;59.91
12349;BME280;5974;42.710;27.258;2023-03-25T11:33:41;99444.88;;;22.50;61.30
12349;BME280;5974;42.710;27.258;2023-03-25T11:36:27;99447.72;;;22.92;59.02
12349;BME280;5974;42.710;27.258;2023-03-25T11:39:01;99435.81;;;22.60;57.51
12349;BME280;5974;42.710;27.258;2023-03-25T11:41:33;99432.19;;;23.13;59.25
12349;BME280;5974;42.710;27.258;2023-03-25T11:44:01;99427.75;;;22.96;58.99
12349;BME280;5974;42.710;27.258;2023-03-25T11:46:29;99428.06;;;22.93;59.40
12349;BME280;5974;42.710;27.258;2023-03-25T11:49:07;99423.88;;;23.16;58.93
12349;BME280;5974;42.710;27.258;2023-03-25T11:51:34;99420.59;;;23.30;59.23
12349;BME280;5974;42.710;27.258;2023-03-25T11:54:06;99406.84;;;23.17;58.66
12349;BME280;5974;42.710;27.258;2023-03-25T11:56:36;99415.59;;;23.01;60.07
12349;BME280;5974;42.710;27.258;2023-03-25T11:59:07;99420.69;;;22.61;56.73
12349;BME280;5974;42.710;27.258;2023-03-25T12:01:39;99404.50;;;22.01;62.25
12349;BME280;5974;42.710;27.258;2023-03-25T12:04:11;99415.91;;;21.49;64.46
12349;BME280;5974;42.710;27.258;2023-03-25T12:06:52;99406.09;;;21.49;66.96
12349;BME280;5974;42.710;27.258;2023-03-25T12:09:20;99408.31;;;20.80;68.27
12349;BME280;5974;42.710;27.258;2023-03-25T12:11:55;99396.75;;;20.62;68.24
12349;BME280;5974;42.710;27.258;2023-03-25T12:14:36;99404.97;;;20.78;70.53
12349;BME280;5974;42.710;27.258;2023-03-25T12:17:15;99408.00;;;20.93;72.45
12349;BME280;5974;42.710;27.258;2023-03-25T12:19:50;99406.25;;;20.55;71.27
12349;BME280;5974;42.710;27.258;2023-03-25T12:22:32;99402.59;;;20.75;72.77
12349;BME280;5974;42.710;27.258;2023-03-25T12:25:13;99397.03;;;21.05;71.74
12349;BME280;5974;42.710;27.258;2023-03-25T12:27:52;99397.09;;;20.86;71.53
12349;BME280;5974;42.710;27.258;2023-03-25T12:30:30;99380.63;;;21.20;71.86
12349;BME280;5974;42.710;27.258;2023-03-25T12:33:07;99382.59;;;21.08;69.71
12349;BME280;5974;42.710;27.258;2023-03-25T12:35:41;99389.56;;;21.28;70.49
12349;BME280;5974;42.710;27.258;2023-03-25T12:38:29;99384.88;;;20.66;71.95
12349;BME280;5974;42.710;27.258;2023-03-25T12:41:10;99383.34;;;20.25;71.63
12349;BME280;5974;42.710;27.258;2023-03-25T12:43:52;99380.03;;;20.42;73.75
12349;BME280;5974;42.710;27.258;2023-03-25T12:46:33;99374.72;;;20.23;74.25
12349;BME280;5974;42.710;27.258;2023-03-25T12:49:15;99367.59;;;20.14;73.73
12349;BME280;5974;42.710;27.258;2023-03-25T12:51:52;99361.19;;;20.26;74.72
12349;BME280;5974;42.710;27.258;2023-03-25T12:54:35;99368.13;;;20.37;73.82
12349;BME280;5974;42.710;27.258;2023-03-25T12:57:15;99362.38;;;20.61;73.17
12349;BME280;5974;42.710;27.258;2023-03-25T13:03:33;99359.06;;;20.20;75.65
12349;BME280;5974;42.710;27.258;2023-03-25T13:06:15;99356.78;;;20.64;76.54
12349;BME280;5974;42.710;27.258;2023-03-25T13:08:50;99356.25;;;20.41;75.02
12349;BME280;5974;42.710;27.258;2023-03-25T13:11:22;99359.75;;;19.93;75.88
12349;BME280;5974;42.710;27.258;2023-03-25T13:13:56;99353.34;;;19.67;76.31
12349;BME280;5974;42.710;27.258;2023-03-25T13:16:26;99351.38;;;19.69;77.08
12349;BME280;5974;42.710;27.258;2023-03-25T13:19:00;99349.72;;;19.78;77.06
12349;BME280;5974;42.710;27.258;2023-03-25T13:21:31;99353.75;;;19.63;77.30
12349;BME280;5974;42.710;27.258;2023-03-25T13:24:04;99339.53;;;19.83;78.41
12349;BME280;5974;42.710;27.258;2023-03-25T13:26:34;99338.81;;;19.90;78.01
12349;BME280;5974;42.710;27.258;2023-03-25T13:29:03;99347.63;;;19.72;78.63